Time;durP1;ratioP1;P1;durP2;ratioP2;P2;SDS_P1;SDS_P2;PMS_P1;PMS_P2;Temp;Humidity;BMP_temperature;BMP_pressure;BME280_temperature;BME280_humidity;BME280_pressure;Samples;Min_cycle;Max_cycle;Signal;HPM_P1;HPM_P2
2023/06/17 00:00:36;;;;;;;;;;;17.60;56.40;;;;;;8440620;28;19939;-74
2023/06/17 00:04:38;;;;;;;;;;;17.50;56.40;;;;;;8441036;28;19955;-73
2023/06/17 00:08:39;;;;;;;;;;;17.50;56.60;;;;;;8450528;28;19935;-73
2023/06/17 00:12:41;;;;;;;;;;;17.40;56.60;;;;;;8451407;27;20291;-73
2023/06/17 00:16:43;;;;;;;;;;;17.40;56.80;;;;;;8449270;28;20379;-73
2023/06/17 00:20:46;;;;;;;;;;;17.30;56.70;;;;;;8455576;28;20748;-73
2023/06/17 00:24:47;;;;;;;;;;;17.20;57.00;;;;;;8459410;27;19924;-73
2023/06/17 00:28:49;;;;;;;;;;;17.10;56.90;;;;;;8447457;28;19931;-73
2023/06/17 00:32:51;;;;;;;;;;;17.10;56.90;;;;;;8448013;28;19924;-73
2023/06/17 00:36:52;;;;;;;;;;;17.00;56.90;;;;;;8443436;28;19928;-73
2023/06/17 00:40:54;;;;;;;;;;;16.90;56.90;;;;;;8445876;28;19950;-73
2023/06/17 00:44:56;;;;;;;;;;;16.80;56.90;;;;;;8453693;28;19972;-73
2023/06/17 00:48:57;;;;;;;;;;;16.80;57.10;;;;;;8451785;28;20329;-73
2023/06/17 00:52:59;;;;;;;;;;;16.60;57.00;;;;;;8464800;28;19928;-73
2023/06/17 00:57:01;;;;;;;;;;;16.60;57.10;;;;;;8468925;27;19931;-73
2023/06/17 01:01:03;;;;;;;;;;;16.50;57.20;;;;;;8466187;27;19931;-73
2023/06/17 01:05:10;;;;;;;;;;;16.40;57.30;;;;;;8463136;27;19924;-73
2023/06/17 01:09:15;;;;;;;;;;;16.40;57.60;;;;;;8466148;27;19924;-73
2023/06/17 01:13:17;;;;;;;;;;;16.30;57.70;;;;;;8463908;27;20366;-73
2023/06/17 01:17:19;;;;;;;;;;;16.20;57.80;;;;;;8458410;28;19931;-73
2023/06/17 01:21:22;;;;;;;;;;;16.10;57.90;;;;;;8465669;27;19928;-73
2023/06/17 01:25:29;;;;;;;;;;;16.00;58.00;;;;;;8457357;27;19934;-73
2023/06/17 01:29:32;;;;;;;;;;;16.00;58.10;;;;;;8456830;27;19932;-73
2023/06/17 01:33:34;;;;;;;;;;;15.90;58.10;;;;;;8460785;27;19923;-73
2023/06/17 01:37:48;;;;;;;;;;;15.90;58.10;;;;;;8439096;28;20076;-73
2023/06/17 01:41:52;;;;;;;;;;;15.80;58.20;;;;;;8461801;27;19928;-73
2023/06/17 01:45:54;;;;;;;;;;;15.70;58.30;;;;;;8449355;28;19923;-73
2023/06/17 01:50:00;;;;;;;;;;;15.70;58.30;;;;;;8455855;27;20375;-73
2023/06/17 01:54:02;;;;;;;;;;;15.60;58.10;;;;;;8458192;27;19931;-73
2023/06/17 01:58:04;;;;;;;;;;;15.60;58.20;;;;;;8447774;27;19977;-73
2023/06/17 02:02:05;;;;;;;;;;;15.50;58.40;;;;;;8450967;27;20530;-73
2023/06/17 02:06:07;;;;;;;;;;;15.40;58.40;;;;;;8457540;27;20330;-73
2023/06/17 02:10:09;;;;;;;;;;;15.40;58.40;;;;;;8453658;28;19931;-73
2023/06/17 02:14:10;;;;;;;;;;;15.30;58.70;;;;;;8452992;28;19993;-73
2023/06/17 02:18:14;;;;;;;;;;;15.30;58.60;;;;;;8445352;27;19923;-73
2023/06/17 02:22:15;;;;;;;;;;;15.20;58.50;;;;;;8460237;27;20448;-73
2023/06/17 02:26:17;;;;;;;;;;;15.10;58.50;;;;;;8448752;28;19924;-73
2023/06/17 02:30:19;;;;;;;;;;;15.10;58.60;;;;;;8438949;28;19923;-73
2023/06/17 02:34:21;;;;;;;;;;;15.00;58.60;;;;;;8449719;27;19935;-73
2023/06/17 02:38:24;;;;;;;;;;;15.00;58.80;;;;;;8456029;27;19924;-73
2023/06/17 02:42:26;;;;;;;;;;;14.90;58.70;;;;;;8457485;27;19925;-73
2023/06/17 02:46:27;;;;;;;;;;;14.80;59.00;;;;;;8449562;28;19923;-73
2023/06/17 02:50:29;;;;;;;;;;;14.70;59.10;;;;;;8442222;28;19976;-73
2023/06/17 02:54:31;;;;;;;;;;;14.70;59.40;;;;;;8447744;27;19928;-73
2023/06/17 02:58:32;;;;;;;;;;;14.60;59.20;;;;;;8418957;28;20394;-73
2023/06/17 03:02:34;;;;;;;;;;;14.60;59.30;;;;;;8454403;28;20430;-73
2023/06/17 03:06:40;;;;;;;;;;;14.50;59.60;;;;;;8427550;28;19935;-73
2023/06/17 03:10:42;;;;;;;;;;;14.50;59.60;;;;;;8443221;28;19924;-73
2023/06/17 03:14:47;;;;;;;;;;;14.50;59.60;;;;;;8443395;28;19928;-73
2023/06/17 03:18:49;;;;;;;;;;;14.40;59.40;;;;;;8449032;27;20291;-73
2023/06/17 03:22:51;;;;;;;;;;;14.40;59.40;;;;;;8449980;28;20816;-73
2023/06/17 03:26:53;;;;;;;;;;;14.30;59.40;;;;;;8444537;27;20335;-73
2023/06/17 03:30:56;;;;;;;;;;;14.30;59.40;;;;;;8445472;27;19932;-73
2023/06/17 03:34:57;;;;;;;;;;;14.20;59.60;;;;;;8449548;27;19923;-73
2023/06/17 03:38:59;;;;;;;;;;;14.20;59.80;;;;;;8446196;27;20291;-73
2023/06/17 03:43:00;;;;;;;;;;;14.20;59.90;;;;;;8439949;27;19928;-73
2023/06/17 03:47:02;;;;;;;;;;;14.20;59.90;;;;;;8427919;28;19923;-73
2023/06/17 03:51:05;;;;;;;;;;;14.10;60.20;;;;;;8449781;27;19927;-73
2023/06/17 03:55:07;;;;;;;;;;;14.10;60.40;;;;;;8437477;28;19934;-73
2023/06/17 03:59:10;;;;;;;;;;;14.00;60.30;;;;;;8424388;27;20019;-73
2023/06/17 04:03:12;;;;;;;;;;;14.00;60.40;;;;;;8460114;27;19928;-73
2023/06/17 04:07:14;;;;;;;;;;;14.10;60.90;;;;;;8446761;27;19923;-73
2023/06/17 04:11:16;;;;;;;;;;;14.10;60.90;;;;;;8449660;28;19932;-73
2023/06/17 04:15:18;;;;;;;;;;;14.10;61.00;;;;;;8456271;28;20329;-73
2023/06/17 04:19:19;;;;;;;;;;;14.20;61.20;;;;;;8451461;28;20295;-73
2023/06/17 04:23:21;;;;;;;;;;;14.20;61.40;;;;;;8449210;28;19934;-73
2023/06/17 04:27:22;;;;;;;;;;;14.30;61.40;;;;;;8442839;28;19977;-72
2023/06/17 04:31:25;;;;;;;;;;;14.40;61.80;;;;;;8439129;28;19943;-73
2023/06/17 04:35:27;;;;;;;;;;;14.50;62.20;;;;;;8436622;28;19978;-73
2023/06/17 04:39:28;;;;;;;;;;;14.60;62.50;;;;;;8442902;28;19969;-72
2023/06/17 04:43:33;;;;;;;;;;;14.70;62.80;;;;;;8444047;28;19928;-73
2023/06/17 04:47:35;;;;;;;;;;;14.80;63.00;;;;;;8434891;28;20330;-73
2023/06/17 04:51:40;;;;;;;;;;;14.90;63.30;;;;;;8446187;28;19935;-73
2023/06/17 04:55:43;;;;;;;;;;;15.00;63.90;;;;;;8439059;28;19928;-73
2023/06/17 04:59:44;;;;;;;;;;;15.10;63.90;;;;;;8423003;28;19949;-73
2023/06/17 05:03:46;;;;;;;;;;;15.20;64.20;;;;;;8447900;28;19970;-73
2023/06/17 05:07:48;;;;;;;;;;;15.20;64.70;;;;;;8438387;28;19932;-73
2023/06/17 05:11:49;;;;;;;;;;;15.30;65.10;;;;;;8435986;28;21947;-73
2023/06/17 05:15:51;;;;;;;;;;;15.40;65.70;;;;;;8446457;28;19924;-73
2023/06/17 05:19:53;;;;;;;;;;;15.50;66.30;;;;;;8430956;28;20287;-73
2023/06/17 05:23:54;;;;;;;;;;;15.60;66.30;;;;;;8447316;28;20297;-73
2023/06/17 05:27:56;;;;;;;;;;;15.80;66.80;;;;;;8448198;28;19969;-73
2023/06/17 05:31:58;;;;;;;;;;;15.90;67.40;;;;;;8446542;28;20354;-73
2023/06/17 05:36:00;;;;;;;;;;;16.00;68.70;;;;;;8441841;28;19927;-72
2023/06/17 05:40:02;;;;;;;;;;;16.20;69.60;;;;;;8447932;27;19924;-72
2023/06/17 05:44:03;;;;;;;;;;;16.40;69.80;;;;;;8475677;27;19930;-72
2023/06/17 05:48:05;;;;;;;;;;;16.60;73.30;;;;;;8450812;27;20295;-73
2023/06/17 05:52:07;;;;;;;;;;;16.70;73.00;;;;;;8441145;28;20337;-73
2023/06/17 05:56:11;;;;;;;;;;;16.90;74.40;;;;;;8446829;28;19938;-73
2023/06/17 06:00:12;;;;;;;;;;;17.10;75.30;;;;;;8445553;27;19943;-73
2023/06/17 06:04:14;;;;;;;;;;;17.20;74.30;;;;;;8451127;27;21154;-73
2023/06/17 06:08:16;;;;;;;;;;;17.40;73.80;;;;;;8459542;27;19943;-72
2023/06/17 06:12:18;;;;;;;;;;;17.50;75.80;;;;;;8453561;27;19927;-73
2023/06/17 06:16:19;;;;;;;;;;;17.60;74.70;;;;;;8454405;28;20372;-73
2023/06/17 06:20:21;;;;;;;;;;;17.80;74.30;;;;;;8454877;27;20303;-73
2023/06/17 06:24:23;;;;;;;;;;;18.00;75.70;;;;;;8450568;27;19925;-73
2023/06/17 06:28:25;;;;;;;;;;;18.10;76.10;;;;;;8446605;27;19924;-73
2023/06/17 06:32:26;;;;;;;;;;;18.20;75.80;;;;;;8454576;27;19924;-73
2023/06/17 06:36:28;;;;;;;;;;;18.40;75.60;;;;;;8459381;27;19931;-73
2023/06/17 06:40:29;;;;;;;;;;;18.50;74.20;;;;;;8437008;27;19932;-73
2023/06/17 06:44:31;;;;;;;;;;;18.60;73.70;;;;;;8442958;28;19928;-73
2023/06/17 06:48:33;;;;;;;;;;;18.80;73.50;;;;;;8438423;28;19924;-73
2023/06/17 06:52:35;;;;;;;;;;;19.00;72.80;;;;;;8443505;28;19927;-73
2023/06/17 06:56:37;;;;;;;;;;;19.00;73.20;;;;;;8448246;27;19976;-72
2023/06/17 07:00:39;;;;;;;;;;;19.20;72.20;;;;;;8439747;27;19925;-73
2023/06/17 07:04:44;;;;;;;;;;;19.30;72.80;;;;;;8452135;27;19936;-73
2023/06/17 07:08:45;;;;;;;;;;;19.40;71.60;;;;;;8458233;27;19930;-73
2023/06/17 07:12:47;;;;;;;;;;;19.50;71.70;;;;;;8446282;28;19931;-73
2023/06/17 07:16:48;;;;;;;;;;;19.60;71.20;;;;;;8434546;28;19924;-73
2023/06/17 07:20:50;;;;;;;;;;;19.70;71.10;;;;;;8455829;28;19930;-73
2023/06/17 07:24:55;;;;;;;;;;;19.80;71.10;;;;;;8454147;27;20333;-73
2023/06/17 07:28:57;;;;;;;;;;;19.90;71.40;;;;;;8442692;28;19928;-73
2023/06/17 07:32:58;;;;;;;;;;;20.00;71.70;;;;;;8457753;27;19947;-73
2023/06/17 07:37:00;;;;;;;;;;;20.10;71.40;;;;;;8440013;28;19930;-72
2023/06/17 07:41:02;;;;;;;;;;;20.20;70.70;;;;;;8448476;28;19924;-73
2023/06/17 07:45:06;;;;;;;;;;;20.30;70.50;;;;;;8445966;28;19928;-73
2023/06/17 07:49:08;;;;;;;;;;;20.40;70.10;;;;;;8443629;28;19928;-72
2023/06/17 07:53:09;;;;;;;;;;;20.50;69.40;;;;;;8450861;28;19928;-73
2023/06/17 07:57:11;;;;;;;;;;;20.60;69.60;;;;;;8444941;28;19927;-73
2023/06/17 08:01:13;;;;;;;;;;;20.60;69.00;;;;;;8455182;28;19928;-73
2023/06/17 08:05:15;;;;;;;;;;;20.70;69.40;;;;;;8446773;28;19924;-73
2023/06/17 08:09:16;;;;;;;;;;;20.80;69.80;;;;;;8445881;28;19924;-73
2023/06/17 08:13:18;;;;;;;;;;;20.90;70.40;;;;;;8452338;28;20359;-73
2023/06/17 08:17:20;;;;;;;;;;;20.90;69.90;;;;;;8455804;28;19927;-73
2023/06/17 08:21:22;;;;;;;;;;;21.00;70.00;;;;;;8447223;28;19924;-73
2023/06/17 08:25:24;;;;;;;;;;;21.00;69.70;;;;;;8449952;28;19923;-72
2023/06/17 08:29:26;;;;;;;;;;;21.10;70.10;;;;;;8447545;28;19924;-73
2023/06/17 08:33:29;;;;;;;;;;;21.20;67.80;;;;;;8442922;28;20372;-73
2023/06/17 08:37:31;;;;;;;;;;;21.20;69.10;;;;;;8426733;28;19928;-73
2023/06/17 08:41:36;;;;;;;;;;;21.30;68.10;;;;;;8426038;28;20023;-72
2023/06/17 08:45:38;;;;;;;;;;;21.40;68.80;;;;;;8447445;28;19924;-73
2023/06/17 08:49:42;;;;;;;;;;;21.50;67.60;;;;;;8429837;28;19928;-73
2023/06/17 08:53:44;;;;;;;;;;;21.60;64.60;;;;;;8444391;28;20337;-73
2023/06/17 08:57:47;;;;;;;;;;;21.70;66.40;;;;;;8441639;28;19931;-73
2023/06/17 09:01:51;;;;;;;;;;;21.70;64.10;;;;;;8438718;28;19947;-72
2023/06/17 09:05:53;;;;;;;;;;;21.80;66.50;;;;;;8437378;28;19931;-73
2023/06/17 09:09:55;;;;;;;;;;;21.90;67.10;;;;;;8476654;27;20367;-73
2023/06/17 09:13:58;;;;;;;;;;;22.00;64.90;;;;;;8445319;28;20018;-73
2023/06/17 09:17:59;;;;;;;;;;;22.10;64.90;;;;;;8459712;28;20277;-73
2023/06/17 09:22:06;;;;;;;;;;;22.20;62.90;;;;;;8454545;28;20382;-73
2023/06/17 09:26:08;;;;;;;;;;;22.30;66.00;;;;;;8459605;27;20018;-73
2023/06/17 09:30:10;;;;;;;;;;;22.40;61.40;;;;;;8448466;28;20445;-73
2023/06/17 09:34:11;;;;;;;;;;;22.50;66.10;;;;;;8459609;28;19928;-73
2023/06/17 09:38:17;;;;;;;;;;;22.50;67.00;;;;;;8461649;28;19928;-73
2023/06/17 09:42:19;;;;;;;;;;;22.60;66.90;;;;;;8448289;27;19928;-73
2023/06/17 09:46:25;;;;;;;;;;;22.70;67.60;;;;;;8446685;27;19927;-73
2023/06/17 09:50:26;;;;;;;;;;;22.70;66.20;;;;;;8441225;28;19931;-73
2023/06/17 09:54:32;;;;;;;;;;;22.80;66.90;;;;;;8463748;27;19930;-73
2023/06/17 09:58:34;;;;;;;;;;;22.80;65.90;;;;;;8445711;28;19928;-73
2023/06/17 10:02:38;;;;;;;;;;;22.80;67.00;;;;;;8455858;27;19930;-73
2023/06/17 10:06:40;;;;;;;;;;;22.90;66.60;;;;;;8458758;28;19930;-73
2023/06/17 10:10:42;;;;;;;;;;;23.00;66.70;;;;;;8457459;27;19968;-73
2023/06/17 10:14:45;;;;;;;;;;;23.00;63.30;;;;;;8443022;28;19927;-73
2023/06/17 10:18:48;;;;;;;;;;;23.10;64.30;;;;;;8444955;27;19924;-73
2023/06/17 10:22:54;;;;;;;;;;;23.20;63.30;;;;;;8425462;27;19967;-73
2023/06/17 10:27:02;;;;;;;;;;;23.30;63.20;;;;;;8479169;27;19927;-73
2023/06/17 10:31:18;;;;;;;;;;;23.40;65.00;;;;;;8448085;28;19931;-73
2023/06/17 10:35:20;;;;;;;;;;;23.50;66.40;;;;;;8449031;28;20391;-73
2023/06/17 10:39:21;;;;;;;;;;;23.50;64.60;;;;;;8437015;28;19931;-73
2023/06/17 10:43:23;;;;;;;;;;;23.60;61.70;;;;;;8439303;28;21385;-72
2023/06/17 10:47:29;;;;;;;;;;;23.60;63.80;;;;;;8444262;28;19928;-73
2023/06/17 10:51:31;;;;;;;;;;;23.70;62.70;;;;;;8451279;27;19974;-73
2023/06/17 10:55:45;;;;;;;;;;;23.70;61.80;;;;;;8434359;28;20437;-73
2023/06/17 10:59:47;;;;;;;;;;;23.80;63.80;;;;;;8439612;28;19923;-73
2023/06/17 11:03:49;;;;;;;;;;;23.90;62.30;;;;;;8438753;28;19924;-73
2023/06/17 11:07:51;;;;;;;;;;;23.90;65.40;;;;;;8461350;27;19938;-73
2023/06/17 11:11:53;;;;;;;;;;;24.00;61.90;;;;;;8447265;27;19931;-73
2023/06/17 11:15:55;;;;;;;;;;;24.00;64.50;;;;;;8455052;27;19931;-73
2023/06/17 11:19:57;;;;;;;;;;;24.10;64.00;;;;;;8456988;27;19923;-72
2023/06/17 11:23:58;;;;;;;;;;;24.20;62.90;;;;;;8436230;27;19930;-73
2023/06/17 11:28:01;;;;;;;;;;;24.30;62.50;;;;;;8463702;27;19924;-74
2023/06/17 11:32:03;;;;;;;;;;;24.40;63.50;;;;;;8449009;27;19989;-73
2023/06/17 11:36:09;;;;;;;;;;;24.50;63.30;;;;;;8451811;27;19924;-73
2023/06/17 11:40:12;;;;;;;;;;;24.50;62.20;;;;;;8451120;28;19930;-73
2023/06/17 11:44:14;;;;;;;;;;;24.60;63.60;;;;;;8453385;27;19954;-72
2023/06/17 11:48:17;;;;;;;;;;;24.60;53.10;;;;;;8460235;28;19931;-72
2023/06/17 11:52:18;;;;;;;;;;;24.80;59.50;;;;;;8461963;28;20385;-73
2023/06/17 11:56:20;;;;;;;;;;;24.80;60.90;;;;;;8458652;28;20375;-72
2023/06/17 12:00:22;;;;;;;;;;;24.90;56.80;;;;;;8462828;27;19932;-73
2023/06/17 12:04:24;;;;;;;;;;;25.00;60.20;;;;;;8448566;28;19976;-73
2023/06/17 12:08:33;;;;;;;;;;;25.00;62.90;;;;;;8443707;28;19931;-73
2023/06/17 12:12:39;;;;;;;;;;;25.10;62.20;;;;;;8454809;28;19931;-73
2023/06/17 12:16:42;;;;;;;;;;;25.20;62.60;;;;;;8461436;27;20368;-74
2023/06/17 12:20:51;;;;;;;;;;;25.20;59.60;;;;;;8462260;28;19930;-73
2023/06/17 12:24:53;;;;;;;;;;;25.30;61.70;;;;;;8455399;28;20279;-73
2023/06/17 12:28:55;;;;;;;;;;;25.40;59.40;;;;;;8453821;28;19923;-74
2023/06/17 12:32:57;;;;;;;;;;;25.40;55.70;;;;;;8441921;27;19931;-74
2023/06/17 12:37:00;;;;;;;;;;;25.50;62.60;;;;;;8438338;28;19924;-74
2023/06/17 12:41:02;;;;;;;;;;;25.60;61.70;;;;;;8453601;28;20294;-74
2023/06/17 12:45:05;;;;;;;;;;;25.70;62.00;;;;;;8462086;28;19923;-74
2023/06/17 12:49:07;;;;;;;;;;;25.70;55.10;;;;;;8454913;27;20275;-74
2023/06/17 12:53:09;;;;;;;;;;;25.80;54.60;;;;;;8458767;27;20521;-75
2023/06/17 12:57:13;;;;;;;;;;;25.90;55.90;;;;;;8448732;27;19924;-74
2023/06/17 13:01:16;;;;;;;;;;;26.00;61.00;;;;;;8461785;28;19923;-74
2023/06/17 13:05:18;;;;;;;;;;;26.00;59.50;;;;;;8456427;27;19930;-74
2023/06/17 13:09:20;;;;;;;;;;;26.10;61.10;;;;;;8476096;27;20374;-73
2023/06/17 13:13:22;;;;;;;;;;;26.20;56.40;;;;;;8455605;28;19923;-73
2023/06/17 13:17:24;;;;;;;;;;;26.20;56.80;;;;;;8459749;28;19928;-74
2023/06/17 13:21:26;;;;;;;;;;;26.30;59.90;;;;;;8447797;27;20260;-74
2023/06/17 13:25:27;;;;;;;;;;;26.30;48.00;;;;;;8446407;28;19928;-74
2023/06/17 13:29:29;;;;;;;;;;;26.40;55.40;;;;;;8460588;27;19965;-73
2023/06/17 13:33:31;;;;;;;;;;;26.40;59.70;;;;;;8452572;28;20248;-74
2023/06/17 13:37:33;;;;;;;;;;;26.40;54.00;;;;;;8457156;28;19924;-74
2023/06/17 13:41:34;;;;;;;;;;;26.50;54.40;;;;;;8467435;27;19953;-73
2023/06/17 13:45:37;;;;;;;;;;;26.50;47.70;;;;;;8456589;27;19927;-75
2023/06/17 13:49:42;;;;;;;;;;;26.60;53.10;;;;;;8465352;27;19924;-74
2023/06/17 13:53:43;;;;;;;;;;;26.70;57.90;;;;;;8449551;27;20256;-74
2023/06/17 13:57:45;;;;;;;;;;;26.70;52.00;;;;;;8452471;27;19925;-75
2023/06/17 14:01:46;;;;;;;;;;;26.70;52.70;;;;;;8448524;27;19949;-75
2023/06/17 14:05:48;;;;;;;;;;;26.70;49.20;;;;;;8453423;28;19924;-74
2023/06/17 14:09:50;;;;;;;;;;;26.80;47.60;;;;;;8438353;27;19931;-75
2023/06/17 14:13:52;;;;;;;;;;;26.90;54.10;;;;;;8452621;27;19949;-76
2023/06/17 14:17:53;;;;;;;;;;;26.90;50.90;;;;;;8454697;27;20378;-73
2023/06/17 14:21:58;;;;;;;;;;;27.00;50.70;;;;;;8445250;28;20893;-74
2023/06/17 14:26:00;;;;;;;;;;;27.00;53.80;;;;;;8454904;28;20402;-73
2023/06/17 14:30:02;;;;;;;;;;;27.00;50.40;;;;;;8443695;28;19928;-74
2023/06/17 14:34:04;;;;;;;;;;;27.10;49.70;;;;;;8460104;27;19923;-74
2023/06/17 14:38:08;;;;;;;;;;;27.20;55.80;;;;;;8455162;28;20264;-74
2023/06/17 14:42:11;;;;;;;;;;;27.20;49.90;;;;;;8444326;27;19936;-74
2023/06/17 14:46:14;;;;;;;;;;;27.20;47.10;;;;;;8448847;27;19924;-75
2023/06/17 14:50:15;;;;;;;;;;;27.30;43.50;;;;;;8460289;27;19971;-74
2023/06/17 14:54:17;;;;;;;;;;;27.40;53.70;;;;;;8459979;28;19970;-73
2023/06/17 14:58:19;;;;;;;;;;;27.40;47.20;;;;;;8440385;27;19924;-74
2023/06/17 15:02:21;;;;;;;;;;;27.40;50.10;;;;;;8452413;27;20363;-74
2023/06/17 15:06:23;;;;;;;;;;;27.50;54.10;;;;;;8451665;27;19930;-74
2023/06/17 15:10:24;;;;;;;;;;;27.50;44.40;;;;;;8445684;27;20390;-74
2023/06/17 15:14:27;;;;;;;;;;;27.60;50.20;;;;;;8449858;27;19928;-74
2023/06/17 15:18:29;;;;;;;;;;;27.60;51.30;;;;;;8463788;27;20268;-74
2023/06/17 15:22:30;;;;;;;;;;;27.60;44.70;;;;;;8454203;27;19931;-74
2023/06/17 15:26:32;;;;;;;;;;;27.70;51.60;;;;;;8449436;27;19928;-73
2023/06/17 15:30:34;;;;;;;;;;;27.70;50.60;;;;;;8456548;28;19924;-74
2023/06/17 15:34:35;;;;;;;;;;;27.70;50.50;;;;;;8452780;28;19931;-73
2023/06/17 15:38:37;;;;;;;;;;;27.80;52.30;;;;;;8457317;27;20990;-73
2023/06/17 15:42:39;;;;;;;;;;;27.80;49.30;;;;;;8455194;28;19969;-74
2023/06/17 15:46:42;;;;;;;;;;;27.80;44.60;;;;;;8484224;27;19963;-74
2023/06/17 15:50:44;;;;;;;;;;;27.80;50.20;;;;;;8439044;28;19993;-73
2023/06/17 15:54:45;;;;;;;;;;;27.90;46.50;;;;;;8435979;27;19923;-73
2023/06/17 15:58:47;;;;;;;;;;;27.90;51.30;;;;;;8450186;28;19931;-75
2023/06/17 16:02:49;;;;;;;;;;;28.00;45.60;;;;;;8466488;27;19930;-75
2023/06/17 16:06:50;;;;;;;;;;;28.10;45.50;;;;;;8454193;28;20370;-73
2023/06/17 16:10:54;;;;;;;;;;;28.30;48.50;;;;;;8450975;28;20016;-74
2023/06/17 16:14:56;;;;;;;;;;;28.30;44.10;;;;;;8451348;27;20327;-74
2023/06/17 16:18:57;;;;;;;;;;;28.30;48.50;;;;;;8452647;27;19923;-74
2023/06/17 16:22:59;;;;;;;;;;;28.40;44.10;;;;;;8444113;28;19977;-73
2023/06/17 16:27:01;;;;;;;;;;;28.40;50.20;;;;;;8446508;28;19928;-73
2023/06/17 16:31:03;;;;;;;;;;;28.50;49.70;;;;;;8446278;28;19924;-75
2023/06/17 16:35:06;;;;;;;;;;;28.60;42.90;;;;;;8445085;28;19970;-73
2023/06/17 16:39:09;;;;;;;;;;;28.60;45.30;;;;;;8451681;28;20295;-73
2023/06/17 16:43:10;;;;;;;;;;;28.70;46.60;;;;;;8456788;28;19946;-75
2023/06/17 16:47:12;;;;;;;;;;;28.90;47.40;;;;;;8457482;28;19928;-74
2023/06/17 16:51:14;;;;;;;;;;;28.90;45.70;;;;;;8459436;28;20428;-74
2023/06/17 16:55:16;;;;;;;;;;;28.80;45.70;;;;;;8456770;28;19931;-73
2023/06/17 16:59:18;;;;;;;;;;;28.80;50.20;;;;;;8447676;28;19943;-75
2023/06/17 17:03:20;;;;;;;;;;;28.80;48.90;;;;;;8451228;28;20324;-74
2023/06/17 17:07:21;;;;;;;;;;;28.70;47.10;;;;;;8448826;28;20375;-73
2023/06/17 17:11:23;;;;;;;;;;;28.50;47.50;;;;;;8453457;28;19927;-73
2023/06/17 17:15:25;;;;;;;;;;;28.40;49.90;;;;;;8443991;28;19973;-73
2023/06/17 17:19:27;;;;;;;;;;;28.20;50.20;;;;;;8459089;28;20376;-74
2023/06/17 17:23:28;;;;;;;;;;;28.10;51.00;;;;;;8434762;28;19931;-74
2023/06/17 17:27:30;;;;;;;;;;;28.00;50.40;;;;;;8448306;28;20379;-75
2023/06/17 17:31:32;;;;;;;;;;;27.90;50.20;;;;;;8455698;28;19924;-74
2023/06/17 17:35:35;;;;;;;;;;;27.80;49.90;;;;;;8442984;28;19929;-74
2023/06/17 17:39:37;;;;;;;;;;;27.80;50.50;;;;;;8458656;27;19950;-74
2023/06/17 17:43:39;;;;;;;;;;;27.70;51.00;;;;;;8445043;27;20375;-74
2023/06/17 17:47:41;;;;;;;;;;;27.60;51.10;;;;;;8451246;27;19927;-74
2023/06/17 17:51:42;;;;;;;;;;;27.60;50.80;;;;;;8466195;27;20294;-74
2023/06/17 17:55:44;;;;;;;;;;;27.60;51.00;;;;;;8460469;27;19969;-75
2023/06/17 17:59:46;;;;;;;;;;;27.50;50.90;;;;;;8444941;28;19930;-75
2023/06/17 18:03:47;;;;;;;;;;;27.50;51.60;;;;;;8450238;27;20808;-75
2023/06/17 18:07:49;;;;;;;;;;;27.50;51.60;;;;;;8451341;28;20366;-75
2023/06/17 18:11:51;;;;;;;;;;;27.40;51.80;;;;;;8453751;27;19924;-75
2023/06/17 18:15:53;;;;;;;;;;;27.40;52.10;;;;;;8447688;27;19928;-75
2023/06/17 18:19:54;;;;;;;;;;;27.30;52.50;;;;;;8447452;27;19931;-74
2023/06/17 18:23:56;;;;;;;;;;;27.30;52.70;;;;;;8440381;27;19924;-74
2023/06/17 18:27:58;;;;;;;;;;;27.20;52.90;;;;;;8463971;27;19924;-75
2023/06/17 18:32:00;;;;;;;;;;;27.20;53.40;;;;;;8453658;27;20036;-74
2023/06/17 18:36:02;;;;;;;;;;;27.10;53.60;;;;;;8460467;27;19923;-74
2023/06/17 18:40:04;;;;;;;;;;;27.00;53.70;;;;;;8450011;28;20298;-74
2023/06/17 18:44:05;;;;;;;;;;;27.00;53.90;;;;;;8458722;27;19979;-74
2023/06/17 18:48:07;;;;;;;;;;;26.90;54.00;;;;;;8460683;27;19924;-74
2023/06/17 18:52:09;;;;;;;;;;;26.80;54.30;;;;;;8454094;28;19927;-74
2023/06/17 18:56:11;;;;;;;;;;;26.70;54.40;;;;;;8459025;28;19931;-74
2023/06/17 19:00:12;;;;;;;;;;;26.70;54.60;;;;;;8457956;28;19924;-74
2023/06/17 19:04:14;;;;;;;;;;;26.60;54.60;;;;;;8460066;27;19934;-74
2023/06/17 19:08:16;;;;;;;;;;;26.50;54.80;;;;;;8454362;27;20436;-74
2023/06/17 19:12:17;;;;;;;;;;;26.40;55.00;;;;;;8452197;28;20378;-74
2023/06/17 19:16:19;;;;;;;;;;;26.30;55.30;;;;;;8456132;27;19959;-74
2023/06/17 19:20:21;;;;;;;;;;;26.30;55.70;;;;;;8450611;28;20341;-74
2023/06/17 19:24:23;;;;;;;;;;;26.30;55.90;;;;;;8455927;28;19966;-74
2023/06/17 19:28:25;;;;;;;;;;;26.20;55.70;;;;;;8437144;27;19924;-74
2023/06/17 19:32:27;;;;;;;;;;;26.10;56.20;;;;;;8469967;27;20295;-74
2023/06/17 19:36:29;;;;;;;;;;;26.00;56.30;;;;;;8453193;27;20398;-74
2023/06/17 19:40:30;;;;;;;;;;;26.00;56.40;;;;;;8450081;27;19932;-74
2023/06/17 19:44:34;;;;;;;;;;;25.80;56.40;;;;;;8467662;27;20264;-74
2023/06/17 19:48:36;;;;;;;;;;;25.80;56.70;;;;;;8453216;28;20001;-74
2023/06/17 19:52:38;;;;;;;;;;;25.70;56.90;;;;;;8455247;28;19931;-74
2023/06/17 19:56:39;;;;;;;;;;;25.60;56.90;;;;;;8450144;27;19923;-74
2023/06/17 20:00:41;;;;;;;;;;;25.50;56.90;;;;;;8432942;28;19957;-74
2023/06/17 20:04:43;;;;;;;;;;;25.40;57.00;;;;;;8454334;28;19924;-73
2023/06/17 20:08:44;;;;;;;;;;;25.40;57.20;;;;;;8454192;28;19924;-73
2023/06/17 20:12:46;;;;;;;;;;;25.30;57.00;;;;;;8438299;28;19924;-74
2023/06/17 20:16:48;;;;;;;;;;;25.20;57.10;;;;;;8452293;28;19981;-74
2023/06/17 20:20:50;;;;;;;;;;;25.20;57.20;;;;;;8443540;28;19973;-74
2023/06/17 20:24:52;;;;;;;;;;;25.10;57.30;;;;;;8440145;28;19931;-74
2023/06/17 20:28:53;;;;;;;;;;;25.10;57.40;;;;;;8448715;27;20387;-73
2023/06/17 20:32:55;;;;;;;;;;;25.00;57.50;;;;;;8453588;28;19932;-74
2023/06/17 20:36:56;;;;;;;;;;;25.00;57.60;;;;;;8441633;28;19930;-74
2023/06/17 20:40:58;;;;;;;;;;;24.90;57.70;;;;;;8452758;28;20384;-74
2023/06/17 20:45:00;;;;;;;;;;;24.80;57.60;;;;;;8452803;28;20287;-74
2023/06/17 20:49:02;;;;;;;;;;;24.80;57.70;;;;;;8445880;28;20011;-74
2023/06/17 20:53:03;;;;;;;;;;;24.80;58.00;;;;;;8449027;28;19924;-74
2023/06/17 20:57:05;;;;;;;;;;;24.80;57.90;;;;;;8427616;28;19935;-74
2023/06/17 21:01:08;;;;;;;;;;;24.70;58.10;;;;;;8430702;28;19932;-74
2023/06/17 21:05:10;;;;;;;;;;;24.60;58.20;;;;;;8444121;28;19928;-74
2023/06/17 21:09:12;;;;;;;;;;;24.60;58.50;;;;;;8447356;28;20394;-74
2023/06/17 21:13:14;;;;;;;;;;;24.50;58.40;;;;;;8457976;28;20002;-74
2023/06/17 21:17:16;;;;;;;;;;;24.50;58.50;;;;;;8450025;28;20806;-74
2023/06/17 21:21:18;;;;;;;;;;;24.50;58.70;;;;;;8432823;28;19927;-74
2023/06/17 21:25:20;;;;;;;;;;;24.40;58.70;;;;;;8448456;28;19923;-74
2023/06/17 21:29:21;;;;;;;;;;;24.40;59.00;;;;;;8448871;28;19930;-74
2023/06/17 21:33:24;;;;;;;;;;;24.40;59.10;;;;;;8452415;28;19923;-73
2023/06/17 21:37:25;;;;;;;;;;;24.40;59.10;;;;;;8459210;27;19993;-74
2023/06/17 21:41:27;;;;;;;;;;;24.40;59.20;;;;;;8441457;28;19930;-74
2023/06/17 21:45:29;;;;;;;;;;;24.30;59.20;;;;;;8457079;28;19930;-74
2023/06/17 21:49:31;;;;;;;;;;;24.30;59.20;;;;;;8464698;28;20324;-74
2023/06/17 21:53:32;;;;;;;;;;;24.30;59.30;;;;;;8458285;27;19928;-74
2023/06/17 21:57:34;;;;;;;;;;;24.30;59.30;;;;;;8451868;27;19981;-73
2023/06/17 22:01:36;;;;;;;;;;;24.20;59.20;;;;;;8452625;27;19924;-73
2023/06/17 22:05:37;;;;;;;;;;;24.20;59.20;;;;;;8461321;28;19935;-74
2023/06/17 22:09:39;;;;;;;;;;;24.20;59.20;;;;;;8452254;27;19932;-74
2023/06/17 22:13:41;;;;;;;;;;;24.20;59.00;;;;;;8452621;27;19927;-73
2023/06/17 22:17:43;;;;;;;;;;;24.10;59.00;;;;;;8457607;27;19968;-73
2023/06/17 22:21:44;;;;;;;;;;;24.10;58.70;;;;;;8457599;27;19932;-73
2023/06/17 22:25:46;;;;;;;;;;;24.10;58.60;;;;;;8454156;27;20759;-73
2023/06/17 22:29:48;;;;;;;;;;;24.10;58.50;;;;;;8447160;27;19928;-73
2023/06/17 22:33:49;;;;;;;;;;;24.10;58.40;;;;;;8436274;28;19931;-73
2023/06/17 22:37:52;;;;;;;;;;;24.10;58.30;;;;;;8460346;28;19924;-73
2023/06/17 22:41:53;;;;;;;;;;;24.10;58.30;;;;;;8454082;28;19924;-74
2023/06/17 22:45:55;;;;;;;;;;;24.10;58.30;;;;;;8455298;27;19943;-73
2023/06/17 22:49:57;;;;;;;;;;;24.10;58.10;;;;;;8455788;28;20424;-74
2023/06/17 22:53:58;;;;;;;;;;;24.10;57.90;;;;;;8418271;28;19924;-73
2023/06/17 22:58:00;;;;;;;;;;;24.00;58.50;;;;;;8450894;28;19932;-73
2023/06/17 23:02:01;;;;;;;;;;;24.00;57.90;;;;;;8456377;28;19935;-74
2023/06/17 23:06:03;;;;;;;;;;;23.90;58.00;;;;;;8446728;28;19932;-74
2023/06/17 23:10:05;;;;;;;;;;;23.90;58.00;;;;;;8431219;27;19931;-74
2023/06/17 23:14:08;;;;;;;;;;;23.90;58.00;;;;;;8458032;28;19923;-74
2023/06/17 23:18:09;;;;;;;;;;;23.80;58.20;;;;;;8448565;27;20338;-74
2023/06/17 23:22:11;;;;;;;;;;;23.80;58.50;;;;;;8449074;27;19935;-74
2023/06/17 23:26:13;;;;;;;;;;;23.80;58.30;;;;;;8429662;28;20288;-74